D/T METAR WX W/DIR W/SPE G/SPE TEMP DEWP
23/05/19 14:20 EGLL 231320Z AUTO 23007KT 160V280 9999 NCD 23/07 Q1015 SW (230°) 8.1mph 23°C 7°C
23/05/19 13:50 EGLL 231250Z AUTO 20007KT 160V250 9999 NCD 22/07 Q1015 SSW (200°) 8.1mph 22°C 7°C
23/05/19 13:20 EGLL 231220Z AUTO 19006KT 130V260 9999 NCD 22/07 Q1016 NOSIG S (190°) 6.9mph 22°C 7°C
23/05/19 12:50 EGLL 231150Z AUTO 20007KT 150V240 9999 NCD 22/06 Q1016 NOSIG SSW (200°) 8.1mph 22°C 6°C
23/05/19 12:20 EGLL 231120Z AUTO 22006KT 160V260 9999 NCD 22/06 Q1016 NOSIG SW (220°) 6.9mph 22°C 6°C
23/05/19 11:50 EGLL 231050Z AUTO VRB05KT 9999 NCD 21/05 Q1017 NOSIG N (0°) 5.8mph 21°C 5°C
23/05/19 11:20 EGLL 231020Z AUTO VRB06KT 9999 NCD 21/05 Q1017 N (0°) 6.9mph 21°C 5°C
23/05/19 10:50 EGLL 230950Z AUTO VRB05KT 9999 NCD 19/06 Q1017 NOSIG N (0°) 5.8mph 19°C 6°C
23/05/19 10:20 EGLL 230920Z AUTO 27005KT 200V330 9999 NCD 19/07 Q1017 W (270°) 5.8mph 19°C 7°C
23/05/19 09:50 EGLL 230850Z AUTO 21005KT 140V300 9999 NCD 17/07 Q1017 NOSIG SSW (210°) 5.8mph 17°C 7°C
23/05/19 09:20 EGLL 230820Z AUTO 26004KT 210V320 9999 NCD 17/08 Q1017 NOSIG W (260°) 4.6mph 17°C 8°C
23/05/19 08:50 EGLL 230750Z AUTO VRB03KT 9999 NCD 15/07 Q1017 N (0°) 3.5mph 15°C 7°C
23/05/19 08:20 EGLL 230720Z AUTO 24004KT 190V270 9999 NCD 15/07 Q1018 WSW (240°) 4.6mph 15°C 7°C
23/05/19 07:20 EGLL 230620Z AUTO 23006KT 9999 NCD 12/07 Q1018 NOSIG SW (230°) 6.9mph 12°C 7°C
23/05/19 06:50 EGLL 230550Z AUTO 22006KT 190V260 9999 NCD 11/07 Q1018 NOSIG SW (220°) 6.9mph 11°C 7°C
23/05/19 06:20 EGLL 230520Z AUTO 22005KT 9999 NCD 10/06 Q1018 NOSIG SW (220°) 5.8mph 10°C 6°C
23/05/19 05:50 EGLL 230450Z AUTO 21004KT 9999 NCD 10/06 Q1018 NOSIG SSW (210°) 4.6mph 10°C 6°C
23/05/19 05:20 EGLL 230420Z AUTO 21004KT 9999 NCD 10/06 Q1018 NOSIG SSW (210°) 4.6mph 10°C 6°C
23/05/19 04:50 EGLL 230350Z AUTO 21003KT 9999 NCD 10/06 Q1018 NOSIG SSW (210°) 3.5mph 10°C 6°C
23/05/19 04:20 EGLL 230320Z AUTO 21004KT 9999 NCD 10/06 Q1018 NOSIG SSW (210°) 4.6mph 10°C 6°C
23/05/19 03:50 EGLL 230250Z AUTO 22003KT 9999 NCD 10/06 Q1018 NOSIG SW (220°) 3.5mph 10°C 6°C
23/05/19 03:20 EGLL 230220Z AUTO 20004KT 9999 NCD 10/06 Q1018 SSW (200°) 4.6mph 10°C 6°C
23/05/19 02:50 EGLL 230150Z AUTO 21004KT 9999 NCD 11/06 Q1018 NOSIG SSW (210°) 4.6mph 11°C 6°C
23/05/19 02:20 EGLL 230120Z AUTO 22005KT 9999 NCD 11/05 Q1018 SW (220°) 5.8mph 11°C 5°C
23/05/19 01:50 EGLL 230050Z AUTO 21004KT 9999 NCD 11/05 Q1018 NOSIG SSW (210°) 4.6mph 11°C 5°C
23/05/19 01:20 EGLL 230020Z AUTO 21006KT 9999 NCD 12/05 Q1018 SSW (210°) 6.9mph 12°C 5°C
23/05/19 00:50 EGLL 222350Z AUTO 22006KT 9999 NCD 12/05 Q1018 NOSIG SW (220°) 6.9mph 12°C 5°C
23/05/19 00:20 EGLL 222320Z AUTO 22005KT 9999 NCD 13/05 Q1018 NOSIG SW (220°) 5.8mph 13°C 5°C
22/05/19 23:20 EGLL 222220Z AUTO 21006KT 9999 NCD 14/04 Q1019 NOSIG SSW (210°) 6.9mph 14°C 4°C
22/05/19 22:50 EGLL 222150Z AUTO 22007KT 9999 NCD 15/04 Q1019 NOSIG SW (220°) 8.1mph 15°C 4°C
22/05/19 21:50 EGLL 222050Z AUTO 23007KT 9999 NCD 16/05 Q1018 NOSIG SW (230°) 8.1mph 16°C 5°C
22/05/19 21:20 EGLL 222020Z AUTO 23008KT 200V260 9999 NCD 17/05 Q1018 NOSIG SW (230°) 9.2mph 17°C 5°C
22/05/19 20:50 EGLL 221950Z AUTO 22008KT 9999 NCD 18/05 Q1018 NOSIG SW (220°) 9.2mph 18°C 5°C
22/05/19 20:20 EGLL 221920Z AUTO 22010KT 9999 NCD 19/05 Q1018 NOSIG SW (220°) 11.5mph 19°C 5°C
22/05/19 19:50 EGLL 221850Z AUTO 22010KT 9999 NCD 19/06 Q1018 NOSIG SW (220°) 11.5mph 19°C 6°C
22/05/19 19:20 EGLL 221820Z AUTO 23010KT 190V250 9999 NCD 20/06 Q1018 NOSIG SW (230°) 11.5mph 20°C 6°C
22/05/19 18:50 EGLL 221750Z AUTO 23010KT 9999 NCD 20/06 Q1018 NOSIG SW (230°) 11.5mph 20°C 6°C
22/05/19 18:20 EGLL 221720Z AUTO 24010KT 9999 NCD 20/06 Q1018 NOSIG WSW (240°) 11.5mph 20°C 6°C
22/05/19 17:50 EGLL 221650Z AUTO 24009KT 180V270 9999 NCD 20/05 Q1018 NOSIG WSW (240°) 10.4mph 20°C 5°C
22/05/19 16:50 EGLL 221550Z AUTO 26010KT 230V290 9999 NCD 21/04 Q1019 W (260°) 11.5mph 21°C 4°C
22/05/19 16:20 EGLL 221520Z AUTO 24011KT 9999 NCD 21/04 Q1019 NOSIG WSW (240°) 12.7mph 21°C 4°C
22/05/19 15:50 EGLL 221450Z AUTO 24008KT 200V270 9999 NCD 21/04 Q1019 NOSIG WSW (240°) 9.2mph 21°C 4°C
22/05/19 15:20 EGLL 221420Z AUTO 23009KT 190V270 9999 NCD 21/04 Q1019 NOSIG SW (230°) 10.4mph 21°C 4°C
22/05/19 14:50 EGLL 221350Z AUTO 26008KT 200V300 9999 NCD 21/04 Q1019 NOSIG W (260°) 9.2mph 21°C 4°C
22/05/19 14:20 EGLL 221320Z AUTO VRB06G16KT 9999 NCD 21/05 Q1019 N (0°) 6.9mph 18.4mph 21°C 5°C
22/05/19 13:50 EGLL 221250Z AUTO 24005KT 160V290 9999 NCD 20/05 Q1020 WSW (240°) 5.8mph 20°C 5°C
22/05/19 13:20 EGLL 221220Z AUTO 22007KT 160V300 9999 NCD 19/04 Q1020 NOSIG SW (220°) 8.1mph 19°C 4°C
22/05/19 12:50 EGLL 221150Z AUTO 24009KT 200V270 9999 NCD 20/04 Q1020 NOSIG WSW (240°) 10.4mph 20°C 4°C